sensor_id;sensor_type;location;lat;lon;timestamp;pressure;altitude;pressure_sealevel;temperature;humidity
56630;BME280;42502;40.732;-74.254;2023-04-23T00:00:51;100113.59;;;26.61;35.09
56630;BME280;42502;40.732;-74.254;2023-04-23T00:02:55;100105.50;;;26.59;34.94
56630;BME280;42502;40.732;-74.254;2023-04-23T00:05:03;100107.53;;;26.59;34.93
56630;BME280;42502;40.732;-74.254;2023-04-23T00:07:05;100114.78;;;26.60;35.10
56630;BME280;42502;40.732;-74.254;2023-04-23T00:09:06;100105.50;;;26.59;35.00
56630;BME280;42502;40.732;-74.254;2023-04-23T00:11:08;100105.91;;;26.58;34.94
56630;BME280;42502;40.732;-74.254;2023-04-23T00:13:09;100100.25;;;26.58;35.20
56630;BME280;42502;40.732;-74.254;2023-04-23T00:15:11;100097.41;;;26.58;34.86
56630;BME280;42502;40.732;-74.254;2023-04-23T00:17:12;100107.13;;;26.57;35.17
56630;BME280;42502;40.732;-74.254;2023-04-23T00:19:16;100095.78;;;26.57;35.42
56630;BME280;42502;40.732;-74.254;2023-04-23T00:21:17;100105.53;;;26.56;34.96
56630;BME280;42502;40.732;-74.254;2023-04-23T00:23:18;100105.53;;;26.56;35.20
56630;BME280;42502;40.732;-74.254;2023-04-23T00:25:19;100107.53;;;26.55;35.36
56630;BME280;42502;40.732;-74.254;2023-04-23T00:27:20;100109.56;;;26.55;35.25
56630;BME280;42502;40.732;-74.254;2023-04-23T00:29:20;100105.94;;;26.54;35.47
56630;BME280;42502;40.732;-74.254;2023-04-23T00:31:21;100104.31;;;26.50;35.16
56630;BME280;42502;40.732;-74.254;2023-04-23T00:33:23;100118.88;;;26.52;35.05
56630;BME280;42502;40.732;-74.254;2023-04-23T00:35:24;100122.50;;;26.52;35.01
56630;BME280;42502;40.732;-74.254;2023-04-23T00:37:25;100129.00;;;26.53;35.38
56630;BME280;42502;40.732;-74.254;2023-04-23T00:39:26;100183.22;;;26.51;35.42
56630;BME280;42502;40.732;-74.254;2023-04-23T00:41:27;100211.56;;;26.51;35.68
56630;BME280;42502;40.732;-74.254;2023-04-23T00:43:28;100230.56;;;26.51;35.30
56630;BME280;42502;40.732;-74.254;2023-04-23T00:45:29;100260.91;;;26.50;35.56
56630;BME280;42502;40.732;-74.254;2023-04-23T00:47:34;100302.59;;;26.50;35.39
56630;BME280;42502;40.732;-74.254;2023-04-23T00:49:35;100357.63;;;26.49;35.49
56630;BME280;42502;40.732;-74.254;2023-04-23T00:51:37;100315.13;;;26.49;35.48
56630;BME280;42502;40.732;-74.254;2023-04-23T00:53:38;100254.84;;;26.48;35.37
56630;BME280;42502;40.732;-74.254;2023-04-23T00:55:39;100224.09;;;26.47;35.52
56630;BME280;42502;40.732;-74.254;2023-04-23T00:57:40;100256.06;;;26.47;35.64
56630;BME280;42502;40.732;-74.254;2023-04-23T00:59:42;100260.91;;;26.47;36.07
56630;BME280;42502;40.732;-74.254;2023-04-23T01:01:44;100255.25;;;26.47;36.07
56630;BME280;42502;40.732;-74.254;2023-04-23T01:03:47;100224.50;;;26.45;35.88
56630;BME280;42502;40.732;-74.254;2023-04-23T01:05:49;100230.16;;;26.45;36.01
56630;BME280;42502;40.732;-74.254;2023-04-23T01:07:50;100241.91;;;26.44;36.08
56630;BME280;42502;40.732;-74.254;2023-04-23T01:09:52;100244.34;;;26.45;36.38
56630;BME280;42502;40.732;-74.254;2023-04-23T01:11:54;100249.56;;;26.43;36.08
56630;BME280;42502;40.732;-74.254;2023-04-23T01:13:57;100288.81;;;26.45;36.07
56630;BME280;42502;40.732;-74.254;2023-04-23T01:15:58;100273.88;;;26.44;36.26
56630;BME280;42502;40.732;-74.254;2023-04-23T01:18:00;100264.56;;;26.44;36.24
56630;BME280;42502;40.732;-74.254;2023-04-23T01:20:04;100267.41;;;26.44;36.49
56630;BME280;42502;40.732;-74.254;2023-04-23T01:22:12;100265.78;;;26.42;36.47
56630;BME280;42502;40.732;-74.254;2023-04-23T01:24:14;100267.41;;;26.44;36.51
56630;BME280;42502;40.732;-74.254;2023-04-23T01:26:16;100281.13;;;26.41;36.62
56630;BME280;42502;40.732;-74.254;2023-04-23T01:28:19;100284.78;;;26.42;36.36
56630;BME280;42502;40.732;-74.254;2023-04-23T01:30:20;100282.75;;;26.42;36.83
56630;BME280;42502;40.732;-74.254;2023-04-23T01:32:21;100278.31;;;26.41;36.93
56630;BME280;42502;40.732;-74.254;2023-04-23T01:34:22;100266.97;;;26.41;36.80
56630;BME280;42502;40.732;-74.254;2023-04-23T01:36:26;100269.00;;;26.41;36.53
56630;BME280;42502;40.732;-74.254;2023-04-23T01:38:29;100263.34;;;26.41;36.50
56630;BME280;42502;40.732;-74.254;2023-04-23T01:40:31;100258.47;;;26.41;37.11
56630;BME280;42502;40.732;-74.254;2023-04-23T01:42:32;100263.34;;;26.37;36.84
56630;BME280;42502;40.732;-74.254;2023-04-23T01:44:33;100264.13;;;26.41;36.76
56630;BME280;42502;40.732;-74.254;2023-04-23T01:46:36;100257.28;;;26.35;36.83
56630;BME280;42502;40.732;-74.254;2023-04-23T01:48:37;100256.06;;;26.40;36.96
56630;BME280;42502;40.732;-74.254;2023-04-23T01:50:39;100247.56;;;26.40;36.77
56630;BME280;42502;40.732;-74.254;2023-04-23T01:52:41;100252.41;;;26.39;36.82
56630;BME280;42502;40.732;-74.254;2023-04-23T01:54:44;100247.97;;;26.38;37.09
56630;BME280;42502;40.732;-74.254;2023-04-23T01:56:45;100246.38;;;26.37;37.15
56630;BME280;42502;40.732;-74.254;2023-04-23T01:58:46;100245.53;;;26.37;36.69
56630;BME280;42502;40.732;-74.254;2023-04-23T02:00:48;100237.03;;;26.37;36.97
56630;BME280;42502;40.732;-74.254;2023-04-23T02:02:49;100243.94;;;26.36;37.00
56630;BME280;42502;40.732;-74.254;2023-04-23T02:04:53;100241.91;;;26.36;36.75
56630;BME280;42502;40.732;-74.254;2023-04-23T02:06:55;100226.94;;;26.36;36.56
56630;BME280;42502;40.732;-74.254;2023-04-23T02:08:56;100226.94;;;26.36;36.86
56630;BME280;42502;40.732;-74.254;2023-04-23T02:10:57;100218.44;;;26.36;37.00
56630;BME280;42502;40.732;-74.254;2023-04-23T02:12:58;100215.59;;;26.32;37.08
56630;BME280;42502;40.732;-74.254;2023-04-23T02:14:59;100214.78;;;26.35;36.84
56630;BME280;42502;40.732;-74.254;2023-04-23T02:17:00;100207.13;;;26.36;36.75
56630;BME280;42502;40.732;-74.254;2023-04-23T02:19:02;100205.91;;;26.33;36.56
56630;BME280;42502;40.732;-74.254;2023-04-23T02:21:03;100206.28;;;26.35;36.92
56630;BME280;42502;40.732;-74.254;2023-04-23T02:23:04;100200.63;;;26.35;36.94
56630;BME280;42502;40.732;-74.254;2023-04-23T02:25:06;100201.88;;;26.34;36.73
56630;BME280;42502;40.732;-74.254;2023-04-23T02:27:07;100204.69;;;26.34;36.90
56630;BME280;42502;40.732;-74.254;2023-04-23T02:29:08;100203.88;;;26.34;36.67
56630;BME280;42502;40.732;-74.254;2023-04-23T02:31:09;100193.75;;;26.33;36.67
56630;BME280;42502;40.732;-74.254;2023-04-23T02:33:11;100187.28;;;26.32;37.01
56630;BME280;42502;40.732;-74.254;2023-04-23T02:35:12;100183.25;;;26.33;36.52
56630;BME280;42502;40.732;-74.254;2023-04-23T02:37:13;100181.63;;;26.32;36.87
56630;BME280;42502;40.732;-74.254;2023-04-23T02:39:14;100184.44;;;26.32;36.57
56630;BME280;42502;40.732;-74.254;2023-04-23T02:41:15;100186.50;;;26.32;36.55
56630;BME280;42502;40.732;-74.254;2023-04-23T02:43:16;100199.03;;;26.31;36.53
56630;BME280;42502;40.732;-74.254;2023-04-23T02:45:17;100215.22;;;26.30;36.91
56630;BME280;42502;40.732;-74.254;2023-04-23T02:47:18;100220.03;;;26.30;36.60
56630;BME280;42502;40.732;-74.254;2023-04-23T02:49:19;100233.41;;;26.29;36.74
56630;BME280;42502;40.732;-74.254;2023-04-23T02:51:20;100231.78;;;26.24;36.50
56630;BME280;42502;40.732;-74.254;2023-04-23T02:53:21;100215.63;;;26.29;36.50
56630;BME280;42502;40.732;-74.254;2023-04-23T02:55:22;100223.28;;;26.28;36.76
56630;BME280;42502;40.732;-74.254;2023-04-23T02:57:24;100217.22;;;26.26;36.53
56630;BME280;42502;40.732;-74.254;2023-04-23T02:59:25;100231.38;;;26.26;36.61
56630;BME280;42502;40.732;-74.254;2023-04-23T03:01:26;100247.16;;;26.27;36.75
56630;BME280;42502;40.732;-74.254;2023-04-23T03:03:28;100234.22;;;26.26;36.81
56630;BME280;42502;40.732;-74.254;2023-04-23T03:05:31;100244.72;;;26.22;36.58
56630;BME280;42502;40.732;-74.254;2023-04-23T03:07:32;100243.13;;;26.24;36.69
56630;BME280;42502;40.732;-74.254;2023-04-23T03:09:32;100176.38;;;26.23;36.38
56630;BME280;42502;40.732;-74.254;2023-04-23T03:11:33;100160.22;;;26.24;36.50
56630;BME280;42502;40.732;-74.254;2023-04-23T03:13:34;100158.59;;;26.23;36.38
56630;BME280;42502;40.732;-74.254;2023-04-23T03:15:35;100141.19;;;26.21;36.77
56630;BME280;42502;40.732;-74.254;2023-04-23T03:17:36;100133.50;;;26.21;36.31
56630;BME280;42502;40.732;-74.254;2023-04-23T03:19:37;100112.06;;;26.20;36.17
56630;BME280;42502;40.732;-74.254;2023-04-23T03:21:38;100111.25;;;26.20;36.53
56630;BME280;42502;40.732;-74.254;2023-04-23T03:23:39;100120.97;;;26.19;36.43
56630;BME280;42502;40.732;-74.254;2023-04-23T03:25:40;100106.81;;;26.19;36.38
56630;BME280;42502;40.732;-74.254;2023-04-23T03:27:41;100098.72;;;26.17;36.20
56630;BME280;42502;40.732;-74.254;2023-04-23T03:29:43;100092.28;;;26.13;36.36
56630;BME280;42502;40.732;-74.254;2023-04-23T03:31:44;100097.94;;;26.17;36.23
56630;BME280;42502;40.732;-74.254;2023-04-23T03:33:45;100089.84;;;26.15;36.18
56630;BME280;42502;40.732;-74.254;2023-04-23T03:35:46;100086.22;;;26.15;36.35
56630;BME280;42502;40.732;-74.254;2023-04-23T03:37:46;100080.56;;;26.15;36.31
56630;BME280;42502;40.732;-74.254;2023-04-23T03:39:47;100091.03;;;26.14;36.55
56630;BME280;42502;40.732;-74.254;2023-04-23T03:41:48;100099.94;;;26.13;36.27
56630;BME280;42502;40.732;-74.254;2023-04-23T03:43:49;100111.28;;;26.13;36.42
56630;BME280;42502;40.732;-74.254;2023-04-23T03:45:50;100116.13;;;26.12;36.22
56630;BME280;42502;40.732;-74.254;2023-04-23T03:47:50;100107.63;;;26.12;36.42
56630;BME280;42502;40.732;-74.254;2023-04-23T03:49:52;100108.84;;;26.11;36.08
56630;BME280;42502;40.732;-74.254;2023-04-23T03:51:53;100088.66;;;25.98;36.21
56630;BME280;42502;40.732;-74.254;2023-04-23T03:53:54;100122.19;;;26.11;36.51
56630;BME280;42502;40.732;-74.254;2023-04-23T03:55:54;100123.41;;;26.10;36.15
56630;BME280;42502;40.732;-74.254;2023-04-23T03:57:56;100133.13;;;26.09;36.42
56630;BME280;42502;40.732;-74.254;2023-04-23T03:59:56;100137.16;;;26.08;36.39
56630;BME280;42502;40.732;-74.254;2023-04-23T04:01:57;100144.03;;;26.06;36.24
56630;BME280;42502;40.732;-74.254;2023-04-23T04:03:58;100141.19;;;26.06;36.50
56630;BME280;42502;40.732;-74.254;2023-04-23T04:06:00;100142.44;;;26.05;36.12
56630;BME280;42502;40.732;-74.254;2023-04-23T04:08:01;100137.97;;;26.04;36.42
56630;BME280;42502;40.732;-74.254;2023-04-23T04:10:04;100143.63;;;26.04;36.10
56630;BME280;42502;40.732;-74.254;2023-04-23T04:12:05;100129.50;;;26.04;36.22
56630;BME280;42502;40.732;-74.254;2023-04-23T04:14:06;100144.84;;;26.03;36.20
56630;BME280;42502;40.732;-74.254;2023-04-23T04:16:07;100153.75;;;26.02;36.45
56630;BME280;42502;40.732;-74.254;2023-04-23T04:18:08;100133.53;;;26.00;36.14
56630;BME280;42502;40.732;-74.254;2023-04-23T04:20:09;100121.38;;;25.99;36.01
56630;BME280;42502;40.732;-74.254;2023-04-23T04:22:10;100120.97;;;26.01;36.17
56630;BME280;42502;40.732;-74.254;2023-04-23T04:24:11;100116.56;;;26.00;36.13
56630;BME280;42502;40.732;-74.254;2023-04-23T04:26:12;100120.59;;;25.99;36.52
56630;BME280;42502;40.732;-74.254;2023-04-23T04:28:14;100108.47;;;25.98;36.12
56630;BME280;42502;40.732;-74.254;2023-04-23T04:30:15;100103.59;;;25.99;36.00
56630;BME280;42502;40.732;-74.254;2023-04-23T04:32:16;100092.66;;;25.97;35.94
56630;BME280;42502;40.732;-74.254;2023-04-23T04:34:17;100091.88;;;25.97;36.33
56630;BME280;42502;40.732;-74.254;2023-04-23T04:36:18;100097.94;;;25.95;35.87
56630;BME280;42502;40.732;-74.254;2023-04-23T04:38:19;100099.53;;;25.96;36.12
56630;BME280;42502;40.732;-74.254;2023-04-23T04:40:21;100102.75;;;25.95;35.96
56630;BME280;42502;40.732;-74.254;2023-04-23T04:42:22;100100.75;;;25.95;36.44
56630;BME280;42502;40.732;-74.254;2023-04-23T04:44:23;100091.84;;;25.93;36.26
56630;BME280;42502;40.732;-74.254;2023-04-23T04:46:24;100080.13;;;25.91;36.17
56630;BME280;42502;40.732;-74.254;2023-04-23T04:48:31;100087.41;;;25.92;36.28
56630;BME280;42502;40.732;-74.254;2023-04-23T04:50:32;100089.44;;;25.92;36.17
56630;BME280;42502;40.732;-74.254;2023-04-23T04:52:32;100081.34;;;25.90;36.10
56630;BME280;42502;40.732;-74.254;2023-04-23T04:54:33;100087.84;;;25.91;36.15
56630;BME280;42502;40.732;-74.254;2023-04-23T04:56:34;100079.75;;;25.89;36.13
56630;BME280;42502;40.732;-74.254;2023-04-23T04:58:35;100072.47;;;25.88;36.06
56630;BME280;42502;40.732;-74.254;2023-04-23T05:00:36;100072.47;;;25.88;35.96
56630;BME280;42502;40.732;-74.254;2023-04-23T05:02:37;100071.66;;;25.87;36.32
56630;BME280;42502;40.732;-74.254;2023-04-23T05:04:38;100064.38;;;25.86;36.38
56630;BME280;42502;40.732;-74.254;2023-04-23T05:06:39;100064.38;;;25.86;35.99
56630;BME280;42502;40.732;-74.254;2023-04-23T05:08:40;100063.59;;;25.86;35.88
56630;BME280;42502;40.732;-74.254;2023-04-23T05:10:42;100063.16;;;25.84;36.02
56630;BME280;42502;40.732;-74.254;2023-04-23T05:12:43;100061.16;;;25.84;36.16
56630;BME280;42502;40.732;-74.254;2023-04-23T05:14:44;100072.88;;;25.83;35.92
56630;BME280;42502;40.732;-74.254;2023-04-23T05:16:45;100070.06;;;25.83;36.23
56630;BME280;42502;40.732;-74.254;2023-04-23T05:18:46;100068.03;;;25.83;36.08
56630;BME280;42502;40.732;-74.254;2023-04-23T05:20:47;100067.63;;;25.81;35.92
56630;BME280;42502;40.732;-74.254;2023-04-23T05:22:48;100071.25;;;25.82;36.21
56630;BME280;42502;40.732;-74.254;2023-04-23T05:24:49;100071.25;;;25.82;35.78
56630;BME280;42502;40.732;-74.254;2023-04-23T05:26:50;100065.22;;;25.80;36.18
56630;BME280;42502;40.732;-74.254;2023-04-23T05:28:50;100056.28;;;25.78;35.65
56630;BME280;42502;40.732;-74.254;2023-04-23T05:30:51;100052.25;;;25.79;36.16
56630;BME280;42502;40.732;-74.254;2023-04-23T05:32:52;100038.53;;;25.77;35.91
56630;BME280;42502;40.732;-74.254;2023-04-23T05:34:53;100028.44;;;25.73;35.78
56630;BME280;42502;40.732;-74.254;2023-04-23T05:36:54;100026.41;;;25.77;36.02
56630;BME280;42502;40.732;-74.254;2023-04-23T05:38:55;100016.31;;;25.76;35.83
56630;BME280;42502;40.732;-74.254;2023-04-23T05:40:57;100007.81;;;25.76;35.98
56630;BME280;42502;40.732;-74.254;2023-04-23T05:42:58;99998.94;;;25.74;35.89
56630;BME280;42502;40.732;-74.254;2023-04-23T05:44:59;99998.94;;;25.74;35.70
56630;BME280;42502;40.732;-74.254;2023-04-23T05:47:00;99993.66;;;25.72;36.00
56630;BME280;42502;40.732;-74.254;2023-04-23T05:49:01;99983.16;;;25.73;36.05
56630;BME280;42502;40.732;-74.254;2023-04-23T05:51:01;99978.72;;;25.71;35.64
56630;BME280;42502;40.732;-74.254;2023-04-23T05:53:02;99978.72;;;25.71;35.73
56630;BME280;42502;40.732;-74.254;2023-04-23T05:55:04;99971.44;;;25.70;35.86
56630;BME280;42502;40.732;-74.254;2023-04-23T05:57:05;99967.00;;;25.69;35.89
56630;BME280;42502;40.732;-74.254;2023-04-23T05:59:05;99967.00;;;25.69;36.05
56630;BME280;42502;40.732;-74.254;2023-04-23T06:01:06;99965.38;;;25.68;35.81
56630;BME280;42502;40.732;-74.254;2023-04-23T06:03:08;99979.94;;;25.67;36.07
56630;BME280;42502;40.732;-74.254;2023-04-23T06:05:09;99980.34;;;25.65;36.05
56630;BME280;42502;40.732;-74.254;2023-04-23T06:07:10;99983.56;;;25.64;35.70
56630;BME280;42502;40.732;-74.254;2023-04-23T06:09:12;99982.78;;;25.63;35.92
56630;BME280;42502;40.732;-74.254;2023-04-23T06:11:12;99986.00;;;25.65;36.01
56630;BME280;42502;40.732;-74.254;2023-04-23T06:13:13;99969.03;;;25.65;35.77
56630;BME280;42502;40.732;-74.254;2023-04-23T06:15:14;99978.31;;;25.62;35.90
56630;BME280;42502;40.732;-74.254;2023-04-23T06:17:15;99980.75;;;25.64;36.09
56630;BME280;42502;40.732;-74.254;2023-04-23T06:19:16;99974.28;;;25.63;35.58
56630;BME280;42502;40.732;-74.254;2023-04-23T06:21:17;99966.19;;;25.58;35.65
56630;BME280;42502;40.732;-74.254;2023-04-23T06:23:18;99965.38;;;25.61;35.88
56630;BME280;42502;40.732;-74.254;2023-04-23T06:25:19;99944.81;;;25.57;36.09
56630;BME280;42502;40.732;-74.254;2023-04-23T06:27:19;99954.47;;;25.60;35.76
56630;BME280;42502;40.732;-74.254;2023-04-23T06:29:20;99960.97;;;25.60;35.97
56630;BME280;42502;40.732;-74.254;2023-04-23T06:31:21;99935.50;;;25.60;35.83
56630;BME280;42502;40.732;-74.254;2023-04-23T06:33:22;99928.22;;;25.59;35.87
56630;BME280;42502;40.732;-74.254;2023-04-23T06:35:23;99880.97;;;25.56;35.72
56630;BME280;42502;40.732;-74.254;2023-04-23T06:37:24;99876.94;;;25.57;35.97
56630;BME280;42502;40.732;-74.254;2023-04-23T06:39:25;99886.66;;;25.52;35.78
56630;BME280;42502;40.732;-74.254;2023-04-23T06:41:26;99900.75;;;25.56;35.77
56630;BME280;42502;40.732;-74.254;2023-04-23T06:43:27;99916.94;;;25.56;35.50
56630;BME280;42502;40.732;-74.254;2023-04-23T06:45:28;99917.34;;;25.54;35.65
56630;BME280;42502;40.732;-74.254;2023-04-23T06:47:31;99923.00;;;25.54;35.65
56630;BME280;42502;40.732;-74.254;2023-04-23T06:49:32;99914.94;;;25.45;35.43
56630;BME280;42502;40.732;-74.254;2023-04-23T06:51:33;99915.72;;;25.39;35.82
56630;BME280;42502;40.732;-74.254;2023-04-23T06:53:35;99952.47;;;25.53;35.48
56630;BME280;42502;40.732;-74.254;2023-04-23T06:55:35;99942.41;;;25.48;35.70
56630;BME280;42502;40.732;-74.254;2023-04-23T06:57:36;99937.13;;;25.50;35.63
56630;BME280;42502;40.732;-74.254;2023-04-23T06:59:37;99935.13;;;25.51;35.63
56630;BME280;42502;40.732;-74.254;2023-04-23T07:01:38;99929.47;;;25.51;35.53
56630;BME280;42502;40.732;-74.254;2023-04-23T07:03:39;99904.03;;;25.44;35.31
56630;BME280;42502;40.732;-74.254;2023-04-23T07:05:43;99894.72;;;25.47;35.40
56630;BME280;42502;40.732;-74.254;2023-04-23T07:07:44;99899.19;;;25.48;35.55
56630;BME280;42502;40.732;-74.254;2023-04-23T07:09:45;99901.19;;;25.47;35.58
56630;BME280;42502;40.732;-74.254;2023-04-23T07:11:46;99911.69;;;25.47;35.67
56630;BME280;42502;40.732;-74.254;2023-04-23T07:13:47;99919.38;;;25.46;35.57
56630;BME280;42502;40.732;-74.254;2023-04-23T07:15:48;99925.44;;;25.45;35.72
56630;BME280;42502;40.732;-74.254;2023-04-23T07:17:48;99916.97;;;25.45;35.71
56630;BME280;42502;40.732;-74.254;2023-04-23T07:19:49;99916.13;;;25.44;35.39
56630;BME280;42502;40.732;-74.254;2023-04-23T07:21:50;99920.59;;;25.42;35.44
56630;BME280;42502;40.732;-74.254;2023-04-23T07:23:56;99926.66;;;25.44;35.70
56630;BME280;42502;40.732;-74.254;2023-04-23T07:25:59;99920.59;;;25.42;35.73
56630;BME280;42502;40.732;-74.254;2023-04-23T07:28:00;99914.13;;;25.41;35.77
56630;BME280;42502;40.732;-74.254;2023-04-23T07:30:01;99907.66;;;25.41;35.71
56630;BME280;42502;40.732;-74.254;2023-04-23T07:32:02;99914.53;;;25.40;35.45
56630;BME280;42502;40.732;-74.254;2023-04-23T07:34:02;99923.00;;;25.40;35.54
56630;BME280;42502;40.732;-74.254;2023-04-23T07:36:03;99919.78;;;25.38;35.58
56630;BME280;42502;40.732;-74.254;2023-04-23T07:38:04;99922.22;;;25.39;35.46
56630;BME280;42502;40.732;-74.254;2023-04-23T07:40:06;99917.75;;;25.38;35.53
56630;BME280;42502;40.732;-74.254;2023-04-23T07:42:07;99920.59;;;25.38;35.38
56630;BME280;42502;40.732;-74.254;2023-04-23T07:44:08;99914.13;;;25.38;35.67
56630;BME280;42502;40.732;-74.254;2023-04-23T07:46:09;99923.44;;;25.34;35.36
56630;BME280;42502;40.732;-74.254;2023-04-23T07:48:10;99902.41;;;25.35;35.57
56630;BME280;42502;40.732;-74.254;2023-04-23T07:50:12;99906.47;;;25.34;35.68
56630;BME280;42502;40.732;-74.254;2023-04-23T07:52:13;99915.75;;;25.31;35.45
56630;BME280;42502;40.732;-74.254;2023-04-23T07:54:15;99920.59;;;25.34;35.53
56630;BME280;42502;40.732;-74.254;2023-04-23T07:56:16;99926.66;;;25.33;35.60
56630;BME280;42502;40.732;-74.254;2023-04-23T07:58:17;99932.31;;;25.33;35.55
56630;BME280;42502;40.732;-74.254;2023-04-23T08:00:18;99915.34;;;25.33;35.30
56630;BME280;42502;40.732;-74.254;2023-04-23T08:02:18;99904.03;;;25.29;35.38
56630;BME280;42502;40.732;-74.254;2023-04-23T08:04:23;99903.63;;;25.31;35.63
56630;BME280;42502;40.732;-74.254;2023-04-23T08:06:24;99908.47;;;25.30;35.70
56630;BME280;42502;40.732;-74.254;2023-04-23T08:08:26;99841.91;;;24.82;35.40
56630;BME280;42502;40.732;-74.254;2023-04-23T08:10:27;99915.34;;;25.29;35.29
56630;BME280;42502;40.732;-74.254;2023-04-23T08:12:28;99912.50;;;25.29;35.43
56630;BME280;42502;40.732;-74.254;2023-04-23T08:14:30;99897.16;;;25.27;35.54
56630;BME280;42502;40.732;-74.254;2023-04-23T08:16:30;99889.47;;;25.27;35.46
56630;BME280;42502;40.732;-74.254;2023-04-23T08:18:31;99898.75;;;25.28;35.52
56630;BME280;42502;40.732;-74.254;2023-04-23T08:20:33;99902.00;;;25.26;35.66
56630;BME280;42502;40.732;-74.254;2023-04-23T08:22:34;99908.88;;;25.25;35.32
56630;BME280;42502;40.732;-74.254;2023-04-23T08:24:35;99908.88;;;25.25;35.24
56630;BME280;42502;40.732;-74.254;2023-04-23T08:26:36;99908.44;;;25.23;35.28
56630;BME280;42502;40.732;-74.254;2023-04-23T08:28:37;99912.91;;;25.24;35.67
56630;BME280;42502;40.732;-74.254;2023-04-23T08:30:37;99908.44;;;25.23;35.76
56630;BME280;42502;40.732;-74.254;2023-04-23T08:32:38;99900.81;;;25.24;35.52
56630;BME280;42502;40.732;-74.254;2023-04-23T08:34:42;99907.66;;;25.23;35.38
56630;BME280;42502;40.732;-74.254;2023-04-23T08:36:43;99935.13;;;25.22;35.46
56630;BME280;42502;40.732;-74.254;2023-04-23T08:38:45;99929.84;;;25.17;35.44
56630;BME280;42502;40.732;-74.254;2023-04-23T08:40:48;99929.47;;;25.15;35.39
56630;BME280;42502;40.732;-74.254;2023-04-23T08:42:53;99944.81;;;25.21;35.33
56630;BME280;42502;40.732;-74.254;2023-04-23T08:44:57;99940.34;;;25.20;35.60
56630;BME280;42502;40.732;-74.254;2023-04-23T08:47:03;99944.41;;;25.19;35.30
56630;BME280;42502;40.732;-74.254;2023-04-23T08:49:06;99944.81;;;25.17;35.57
56630;BME280;42502;40.732;-74.254;2023-04-23T08:51:09;99952.91;;;25.19;35.48
56630;BME280;42502;40.732;-74.254;2023-04-23T08:53:17;99945.22;;;25.16;35.54
56630;BME280;42502;40.732;-74.254;2023-04-23T08:55:20;99943.59;;;25.15;35.38
56630;BME280;42502;40.732;-74.254;2023-04-23T08:57:22;99956.91;;;25.18;35.36
56630;BME280;42502;40.732;-74.254;2023-04-23T08:59:29;99955.69;;;25.15;35.54
56630;BME280;42502;40.732;-74.254;2023-04-23T09:01:34;99952.06;;;25.15;35.32
56630;BME280;42502;40.732;-74.254;2023-04-23T09:03:35;99952.06;;;25.15;35.18
56630;BME280;42502;40.732;-74.254;2023-04-23T09:05:38;99957.72;;;25.15;35.25
56630;BME280;42502;40.732;-74.254;2023-04-23T09:07:40;99928.66;;;25.11;35.72
56630;BME280;42502;40.732;-74.254;2023-04-23T09:09:41;99919.75;;;25.12;35.20
56630;BME280;42502;40.732;-74.254;2023-04-23T09:11:42;99922.59;;;25.12;35.20
56630;BME280;42502;40.732;-74.254;2023-04-23T09:13:44;99924.63;;;25.12;35.24
56630;BME280;42502;40.732;-74.254;2023-04-23T09:15:45;99914.53;;;25.11;35.33
56630;BME280;42502;40.732;-74.254;2023-04-23T09:17:46;99922.19;;;25.10;35.32
56630;BME280;42502;40.732;-74.254;2023-04-23T09:19:49;99923.00;;;25.11;35.71
56630;BME280;42502;40.732;-74.254;2023-04-23T09:21:50;99931.47;;;25.11;35.20
56630;BME280;42502;40.732;-74.254;2023-04-23T09:23:52;99934.31;;;25.07;35.39
56630;BME280;42502;40.732;-74.254;2023-04-23T09:25:53;99948.03;;;25.09;35.45
56630;BME280;42502;40.732;-74.254;2023-04-23T09:27:57;99938.34;;;25.06;35.41
56630;BME280;42502;40.732;-74.254;2023-04-23T09:30:03;99932.69;;;25.06;35.69
56630;BME280;42502;40.732;-74.254;2023-04-23T09:32:08;99933.50;;;25.03;35.45
56630;BME280;42502;40.732;-74.254;2023-04-23T09:34:09;99935.09;;;25.00;35.41
56630;BME280;42502;40.732;-74.254;2023-04-23T09:36:10;99934.72;;;25.06;35.45
56630;BME280;42502;40.732;-74.254;2023-04-23T09:38:14;99948.84;;;25.06;35.22
56630;BME280;42502;40.732;-74.254;2023-04-23T09:40:17;99948.41;;;25.04;35.33
56630;BME280;42502;40.732;-74.254;2023-04-23T09:42:22;99950.84;;;25.01;35.28
56630;BME280;42502;40.732;-74.254;2023-04-23T09:44:23;99956.91;;;25.04;35.57
56630;BME280;42502;40.732;-74.254;2023-04-23T09:46:36;99953.69;;;25.01;35.42
56630;BME280;42502;40.732;-74.254;2023-04-23T09:48:41;99959.34;;;25.01;35.41
56630;BME280;42502;40.732;-74.254;2023-04-23T09:50:42;99956.91;;;24.96;35.68
56630;BME280;42502;40.732;-74.254;2023-04-23T09:52:43;99967.81;;;25.01;35.41
56630;BME280;42502;40.732;-74.254;2023-04-23T09:54:44;99960.53;;;25.00;35.33
56630;BME280;42502;40.732;-74.254;2023-04-23T09:56:50;99965.78;;;24.98;35.33
56630;BME280;42502;40.732;-74.254;2023-04-23T09:58:51;99971.44;;;24.98;35.31
56630;BME280;42502;40.732;-74.254;2023-04-23T10:00:52;99968.59;;;25.02;35.01
56630;BME280;42502;40.732;-74.254;2023-04-23T10:02:53;99963.78;;;25.03;35.03
56630;BME280;42502;40.732;-74.254;2023-04-23T10:04:54;99957.69;;;25.00;35.04
56630;BME280;42502;40.732;-74.254;2023-04-23T10:06:59;99961.34;;;24.97;35.36
56630;BME280;42502;40.732;-74.254;2023-04-23T10:09:00;99958.53;;;24.94;35.31
56630;BME280;42502;40.732;-74.254;2023-04-23T10:11:01;99958.53;;;24.94;35.10
56630;BME280;42502;40.732;-74.254;2023-04-23T10:13:03;99960.16;;;24.95;35.40
56630;BME280;42502;40.732;-74.254;2023-04-23T10:15:04;99958.53;;;24.94;35.26
56630;BME280;42502;40.732;-74.254;2023-04-23T10:17:07;99953.28;;;24.92;35.47
56630;BME280;42502;40.732;-74.254;2023-04-23T10:19:13;99956.09;;;24.92;35.22
56630;BME280;42502;40.732;-74.254;2023-04-23T10:21:15;99948.81;;;24.88;35.11
56630;BME280;42502;40.732;-74.254;2023-04-23T10:23:18;99960.13;;;24.91;35.25